createdAt,value
2023-03-11T00:00:00.576Z,93459.00
2023-03-11T00:01:00.618Z,93457.00
2023-03-11T00:02:00.662Z,93463.00
2023-03-11T00:03:00.658Z,93467.00
2023-03-11T00:04:00.665Z,93469.00
2023-03-11T00:05:00.735Z,93469.00
2023-03-11T00:06:00.718Z,93465.00
2023-03-11T00:07:00.790Z,93461.00
2023-03-11T00:08:00.835Z,93459.00
2023-03-11T00:09:00.827Z,93457.00
2023-03-11T00:10:00.861Z,93449.00
2023-03-11T00:11:00.886Z,93451.00
2023-03-11T00:12:00.929Z,93459.00
2023-03-11T00:14:00.998Z,93457.00
2023-03-11T00:15:01.019Z,93455.00
2023-03-11T00:16:01.054Z,93457.00
2023-03-11T00:17:01.060Z,93463.00
2023-03-11T00:18:01.077Z,93473.00
2023-03-11T00:19:01.109Z,93473.00
2023-03-11T00:20:01.156Z,93473.00
2023-03-11T00:21:01.239Z,93469.00
2023-03-11T01:12:02.826Z,93496.00
2023-03-11T01:13:02.858Z,93498.00
2023-03-11T01:14:02.906Z,93490.00
2023-03-11T01:15:02.937Z,93496.00
2023-03-11T01:16:03.080Z,93496.00
2023-03-11T01:17:03.007Z,93500.00
2023-03-11T01:18:03.021Z,93498.00
2023-03-11T01:19:03.089Z,93500.00
2023-03-11T01:20:03.113Z,93494.00
2023-03-11T01:21:03.127Z,93484.00
2023-03-11T01:22:03.158Z,93484.00
2023-03-11T01:23:03.190Z,93488.00
2023-03-11T01:24:03.216Z,93492.00
2023-03-11T01:25:03.249Z,93498.00
2023-03-11T01:26:03.269Z,93500.00
2023-03-11T01:27:03.306Z,93500.00
2023-03-11T01:28:03.319Z,93494.00
2023-03-11T01:29:03.366Z,93492.00
2023-03-11T01:30:03.415Z,93486.00
2023-03-11T01:31:03.470Z,93480.00
2023-03-11T01:32:03.451Z,93482.00
2023-03-11T01:33:03.499Z,93484.00
2023-03-11T01:34:03.560Z,93482.00
2023-03-11T01:35:03.564Z,93482.00
2023-03-11T01:36:03.647Z,93484.00
2023-03-11T01:37:03.627Z,93488.00
2023-03-11T01:38:03.668Z,93492.00
2023-03-11T01:39:03.706Z,93494.00
2023-03-11T01:40:03.712Z,93490.00
2023-03-11T01:41:03.761Z,93488.00
2023-03-11T01:42:03.784Z,93488.00
2023-03-11T01:43:03.842Z,93486.00
2023-03-11T01:44:03.892Z,93484.00
2023-03-11T01:45:03.904Z,93486.00
2023-03-11T01:46:03.946Z,93488.00
2023-03-11T01:47:04.445Z,93486.00
2023-03-11T01:48:04.000Z,93484.00
2023-03-11T01:49:04.043Z,93484.00
2023-03-11T01:50:04.033Z,93486.00
2023-03-11T01:51:04.080Z,93488.00
2023-03-11T01:52:04.137Z,93494.00
2023-03-11T01:53:04.180Z,93496.00
2023-03-11T01:54:04.213Z,93494.00
2023-03-11T01:55:04.223Z,93490.00
2023-03-11T01:56:04.252Z,93488.00
2023-03-11T01:57:04.287Z,93482.00
2023-03-11T01:58:04.327Z,93480.00
2023-03-11T01:59:04.396Z,93480.00
2023-03-11T02:00:04.415Z,93482.00
2023-03-11T02:01:04.402Z,93482.00
2023-03-11T02:02:04.600Z,93482.00
2023-03-11T02:03:04.536Z,93486.00
2023-03-11T02:04:04.543Z,93486.00
2023-03-11T02:05:04.562Z,93484.00
2023-03-11T02:06:04.580Z,93488.00
2023-03-11T02:07:04.633Z,93492.00
2023-03-11T02:08:04.686Z,93494.00
2023-03-11T02:09:04.739Z,93492.00
2023-03-11T02:10:04.743Z,93490.00
2023-03-11T02:11:04.794Z,93488.00
2023-03-11T02:12:04.820Z,93482.00
2023-03-11T02:13:04.878Z,93482.00
2023-03-11T02:14:04.934Z,93486.00
2023-03-11T02:15:04.925Z,93486.00
2023-03-11T02:16:05.048Z,93488.00
2023-03-11T02:17:05.019Z,93484.00
2023-03-11T02:18:05.073Z,93479.00
2023-03-11T02:19:05.030Z,93477.00
2023-03-11T02:20:05.100Z,93484.00
2023-03-11T02:21:05.144Z,93484.00
2023-03-11T02:22:05.141Z,93490.00
2023-03-11T02:23:05.184Z,93490.00
2023-03-11T02:24:05.220Z,93496.00
2023-03-11T02:25:05.258Z,93496.00
2023-03-11T02:26:05.307Z,93500.00
2023-03-11T02:27:05.326Z,93506.00
2023-03-11T02:28:05.349Z,93504.00
2023-03-11T02:29:05.380Z,93500.00
2023-03-11T02:30:05.453Z,93500.00
2023-03-11T02:31:05.541Z,93500.00
2023-03-11T02:32:05.518Z,93506.00
2023-03-11T02:33:05.548Z,93508.00
2023-03-11T02:34:05.581Z,93506.00
2023-03-11T02:35:05.598Z,93504.00
2023-03-11T02:36:05.722Z,93498.00
2023-03-11T02:37:05.710Z,93496.00
2023-03-11T02:38:05.706Z,93498.00
2023-03-11T02:39:05.776Z,93498.00
2023-03-11T02:40:05.813Z,93500.00
2023-03-11T02:41:05.856Z,93508.00
2023-03-11T02:42:05.910Z,93506.00
2023-03-11T02:43:05.908Z,93506.00
2023-03-11T02:44:05.956Z,93504.00
2023-03-11T02:45:05.952Z,93502.00
2023-03-11T02:46:06.027Z,93504.00
2023-03-11T02:47:06.115Z,93504.00
2023-03-11T02:48:06.069Z,93498.00
2023-03-11T02:49:06.111Z,93498.00
2023-03-11T02:50:06.143Z,93506.00
2023-03-11T02:51:06.160Z,93516.00
2023-03-11T02:52:06.218Z,93524.00
2023-03-11T02:53:06.264Z,93528.00
2023-03-11T02:54:06.290Z,93530.00
2023-03-11T02:55:06.274Z,93518.00
2023-03-11T02:56:06.345Z,93520.00
2023-03-11T02:57:06.354Z,93520.00
2023-03-11T02:58:06.394Z,93524.00
2023-03-11T02:59:06.440Z,93520.00
2023-03-11T03:00:06.479Z,93537.00
2023-03-11T03:01:06.546Z,93537.00
2023-03-11T03:02:06.503Z,93541.00
2023-03-11T03:03:06.532Z,93543.00
2023-03-11T03:04:06.612Z,93545.00
2023-03-11T03:05:06.620Z,93553.00
2023-03-11T03:06:06.620Z,93557.00
2023-03-11T03:07:06.667Z,93559.00
2023-03-11T03:08:06.713Z,93557.00
2023-03-11T03:09:06.753Z,93555.00
2023-03-11T03:10:06.811Z,93545.00
2023-03-11T03:11:06.837Z,93541.00
2023-03-11T03:12:06.851Z,93549.00
2023-03-11T03:13:06.889Z,93553.00
2023-03-11T03:14:06.918Z,93553.00
2023-03-11T03:15:06.955Z,93553.00
2023-03-11T03:16:07.047Z,93553.00
2023-03-11T03:17:07.259Z,93549.00
2023-03-11T03:18:07.084Z,93553.00
2023-03-11T03:19:07.110Z,93555.00
2023-03-11T03:20:07.169Z,93555.00
2023-03-11T03:21:07.168Z,93557.00
2023-03-11T03:22:07.214Z,93559.00
2023-03-11T03:23:07.250Z,93561.00
2023-03-11T03:24:07.331Z,93571.00
2023-03-11T03:25:07.350Z,93571.00
2023-03-11T03:26:07.408Z,93577.00
2023-03-11T03:27:07.449Z,93575.00
2023-03-11T03:28:07.423Z,93575.00
2023-03-11T03:29:07.473Z,93573.00
2023-03-11T03:30:07.510Z,93573.00
2023-03-11T03:31:07.548Z,93575.00
2023-03-11T03:32:07.656Z,93577.00
2023-03-11T03:33:07.639Z,93577.00
2023-03-11T03:34:07.675Z,93577.00
2023-03-11T03:35:07.707Z,93579.00
2023-03-11T03:36:07.766Z,93579.00
2023-03-11T03:37:07.792Z,93579.00
2023-03-11T03:38:07.840Z,93582.00
2023-03-11T03:39:07.851Z,93584.00
2023-03-11T03:40:07.947Z,93584.00
2023-03-11T03:41:07.967Z,93581.00
2023-03-11T03:42:07.979Z,93571.00
2023-03-11T03:43:08.007Z,93563.00
2023-03-11T03:44:08.093Z,93557.00
2023-03-11T03:45:08.112Z,93557.00
2023-03-11T03:46:08.374Z,93559.00
2023-03-11T03:47:08.186Z,93561.00
2023-03-11T03:48:08.228Z,93571.00
2023-03-11T03:49:08.250Z,93584.00
2023-03-11T03:50:08.347Z,93588.00
2023-03-11T03:51:08.313Z,93590.00
2023-03-11T03:52:08.426Z,93594.00
2023-03-11T03:53:08.418Z,93608.00
2023-03-11T03:54:08.463Z,93616.00
2023-03-11T03:55:08.542Z,93622.00
2023-03-11T03:56:08.500Z,93622.00
2023-03-11T03:57:08.559Z,93616.00
2023-03-11T03:58:08.575Z,93614.00
2023-03-11T03:59:08.632Z,93618.00
2023-03-11T04:00:08.666Z,93622.00
2023-03-11T04:01:08.669Z,93624.00
2023-03-11T04:02:08.752Z,93633.00
2023-03-11T04:03:08.834Z,93643.00
2023-03-11T04:04:08.803Z,93643.00
2023-03-11T04:05:08.825Z,93647.00
2023-03-11T04:06:08.869Z,93649.00
2023-03-11T04:07:08.910Z,93641.00
2023-03-11T04:08:08.935Z,93639.00
2023-03-11T04:09:08.979Z,93635.00
2023-03-11T04:10:08.999Z,93635.00
2023-03-11T04:12:09.061Z,93637.00
2023-03-11T04:13:09.119Z,93641.00
2023-03-11T04:14:09.132Z,93635.00
2023-03-11T04:15:09.151Z,93637.00
2023-03-11T04:16:09.176Z,93637.00
2023-03-11T04:17:09.294Z,93631.00
2023-03-11T04:18:09.261Z,93622.00
2023-03-11T04:19:09.308Z,93616.00
2023-03-11T04:20:09.337Z,93620.00
2023-03-11T04:21:09.369Z,93618.00
2023-03-11T04:22:09.443Z,93612.00
2023-03-11T04:23:09.452Z,93612.00
2023-03-11T04:24:09.459Z,93618.00
2023-03-11T04:25:09.493Z,93618.00
2023-03-11T04:26:09.529Z,93622.00
2023-03-11T04:27:09.575Z,93627.00
2023-03-11T04:28:09.632Z,93633.00
2023-03-11T04:30:09.708Z,93637.00
2023-03-11T04:31:09.756Z,93641.00
2023-03-11T04:32:09.758Z,93631.00
2023-03-11T04:33:09.789Z,93631.00
2023-03-11T04:34:09.830Z,93624.00
2023-03-11T04:35:09.832Z,93622.00
2023-03-11T04:36:09.911Z,93624.00
2023-03-11T04:37:09.953Z,93627.00
2023-03-11T04:38:09.975Z,93635.00
2023-03-11T04:39:10.008Z,93631.00
2023-03-11T04:40:10.053Z,93635.00
2023-03-11T04:41:10.061Z,93633.00
2023-03-11T04:42:10.125Z,93633.00
2023-03-11T04:43:10.143Z,93631.00
2023-03-11T04:44:10.172Z,93631.00
2023-03-11T04:45:10.214Z,93631.00
2023-03-11T04:46:10.271Z,93635.00
2023-03-11T04:47:10.315Z,93635.00
2023-03-11T04:48:10.322Z,93633.00
2023-03-11T04:49:10.420Z,93635.00
2023-03-11T04:50:10.392Z,93637.00
2023-03-11T04:51:10.449Z,93635.00
2023-03-11T04:52:10.468Z,93639.00
2023-03-11T04:53:10.481Z,93637.00
2023-03-11T04:54:10.523Z,93639.00
2023-03-11T04:55:10.526Z,93645.00
2023-03-11T04:56:10.587Z,93649.00
2023-03-11T04:57:10.628Z,93649.00
2023-03-11T04:58:10.626Z,93647.00
2023-03-11T04:59:10.641Z,93647.00
2023-03-11T05:00:10.747Z,93649.00
2023-03-11T05:01:10.770Z,93647.00
2023-03-11T05:02:12.857Z,93649.00
2023-03-11T05:03:10.892Z,93649.00
2023-03-11T05:04:10.889Z,93645.00
2023-03-11T05:05:10.868Z,93645.00
2023-03-11T05:06:10.898Z,93645.00
2023-03-11T05:07:11.033Z,93647.00
2023-03-11T05:08:11.000Z,93647.00
2023-03-11T05:09:10.988Z,93649.00
2023-03-11T05:10:11.050Z,93653.00
2023-03-11T05:11:11.065Z,93659.00
2023-03-11T05:12:11.099Z,93659.00
2023-03-11T05:13:11.155Z,93659.00
2023-03-11T05:14:11.167Z,93661.00
2023-03-11T05:15:11.193Z,93663.00
2023-03-11T05:16:11.297Z,93663.00
2023-03-11T05:17:11.294Z,93665.00
2023-03-11T05:18:11.333Z,93669.00
2023-03-11T05:19:11.357Z,93671.00
2023-03-11T05:20:11.418Z,93676.00
2023-03-11T05:21:11.409Z,93673.00
2023-03-11T05:22:11.434Z,93676.00
2023-03-11T05:23:11.502Z,93676.00
2023-03-11T05:24:11.547Z,93676.00
2023-03-11T05:25:11.548Z,93682.00
2023-03-11T05:26:11.582Z,93678.00
2023-03-11T05:27:11.628Z,93680.00
2023-03-11T05:28:11.682Z,93682.00
2023-03-11T05:29:11.696Z,93688.00
2023-03-11T05:30:11.734Z,93694.00
2023-03-11T05:31:11.870Z,93696.00
2023-03-11T05:32:11.820Z,93698.00
2023-03-11T05:33:11.855Z,93702.00
2023-03-11T05:34:11.885Z,93700.00
2023-03-11T05:35:11.905Z,93698.00
2023-03-11T05:37:11.996Z,93700.00
2023-03-11T05:38:12.022Z,93702.00
2023-03-11T05:39:12.056Z,93706.00
2023-03-11T05:40:12.128Z,93704.00
2023-03-11T05:41:12.119Z,93706.00
2023-03-11T05:42:12.190Z,93706.00
2023-03-11T05:43:12.164Z,93706.00
2023-03-11T05:44:12.213Z,93702.00
2023-03-11T05:45:12.225Z,93706.00
2023-03-11T05:46:12.346Z,93710.00
2023-03-11T05:47:12.327Z,93710.00
2023-03-11T05:48:12.374Z,93712.00
2023-03-11T05:49:12.377Z,93714.00
2023-03-11T05:50:12.447Z,93712.00
2023-03-11T05:51:12.454Z,93716.00
2023-03-11T05:52:12.487Z,93714.00
2023-03-11T05:53:12.533Z,93712.00
2023-03-11T05:54:12.573Z,93710.00
2023-03-11T05:55:12.576Z,93710.00
2023-03-11T05:56:12.643Z,93712.00
2023-03-11T05:57:12.660Z,93714.00
2023-03-11T05:58:12.777Z,93720.00
2023-03-11T05:59:15.078Z,93720.00
2023-03-11T06:00:12.738Z,93720.00
2023-03-11T06:01:12.722Z,93718.00
2023-03-11T06:02:12.714Z,93718.00
2023-03-11T06:03:12.788Z,93718.00
2023-03-11T06:04:12.832Z,93721.00
2023-03-11T06:05:13.815Z,93721.00
2023-03-11T06:06:12.703Z,93725.00
2023-03-11T06:07:12.661Z,93725.00
2023-03-11T06:08:12.678Z,93727.00
2023-03-11T06:09:12.659Z,93731.00
2023-03-11T06:12:12.654Z,93731.00
2023-03-11T06:13:12.622Z,93733.00
2023-03-11T06:24:12.574Z,93739.00
2023-03-11T06:25:12.525Z,93735.00
2023-03-11T06:26:12.531Z,93733.00
2023-03-11T06:27:12.563Z,93733.00
2023-03-11T06:45:12.823Z,93755.00
2023-03-11T06:46:12.854Z,93755.00
2023-03-11T06:47:12.880Z,93757.00
2023-03-11T06:48:12.935Z,93761.00
2023-03-11T06:49:12.947Z,93763.00
2023-03-11T06:50:12.956Z,93765.00
2023-03-11T06:51:12.986Z,93769.00
2023-03-11T06:52:13.050Z,93771.00
2023-03-11T06:53:13.080Z,93771.00
2023-03-11T06:54:13.127Z,93773.00
2023-03-11T06:55:13.124Z,93773.00
2023-03-11T06:56:13.157Z,93775.00
2023-03-11T06:57:13.167Z,93778.00
2023-03-11T06:58:13.189Z,93782.00
2023-03-11T06:59:13.235Z,93784.00
2023-03-11T07:00:13.245Z,93786.00
2023-03-11T07:01:13.324Z,93786.00
2023-03-11T07:02:13.352Z,93786.00
2023-03-11T07:03:13.361Z,93784.00
2023-03-11T07:04:13.405Z,93786.00
2023-03-11T07:05:13.403Z,93788.00
2023-03-11T07:06:13.420Z,93790.00
2023-03-11T07:07:13.465Z,93792.00
2023-03-11T07:08:13.470Z,93792.00
2023-03-11T07:09:13.495Z,93792.00
2023-03-11T07:10:13.537Z,93792.00
2023-03-11T07:11:13.567Z,93792.00
2023-03-11T07:12:13.593Z,93794.00
2023-03-11T07:13:14.097Z,93794.00
2023-03-11T07:14:14.289Z,93798.00
2023-03-11T07:15:14.168Z,93796.00
2023-03-11T07:16:14.316Z,93800.00
2023-03-11T07:17:14.168Z,93800.00
2023-03-11T07:18:14.315Z,93796.00
2023-03-11T07:19:14.292Z,93800.00
2023-03-11T07:20:14.341Z,93798.00
2023-03-11T07:21:14.242Z,93802.00
2023-03-11T07:22:14.141Z,93800.00
2023-03-11T07:23:14.589Z,93804.00
2023-03-11T07:24:13.913Z,93812.00
2023-03-11T07:25:14.218Z,93814.00
2023-03-11T07:26:14.333Z,93814.00
2023-03-11T07:27:14.016Z,93812.00
2023-03-11T07:28:14.183Z,93812.00
2023-03-11T07:29:14.071Z,93816.00
2023-03-11T07:30:14.684Z,93816.00
2023-03-11T07:31:14.298Z,93824.00
2023-03-11T07:32:14.359Z,93824.00
2023-03-11T07:33:14.186Z,93820.00
2023-03-11T07:34:14.263Z,93822.00
2023-03-11T07:35:14.235Z,93822.00
2023-03-11T07:36:14.260Z,93824.00
2023-03-11T07:37:14.417Z,93824.00
2023-03-11T07:38:14.299Z,93826.00
2023-03-11T07:39:14.890Z,93827.00
2023-03-11T07:40:14.370Z,93837.00
2023-03-11T07:41:14.398Z,93845.00
2023-03-11T07:42:14.978Z,93841.00
2023-03-11T07:43:15.059Z,93847.00
2023-03-11T07:44:14.481Z,93845.00
2023-03-11T07:45:14.476Z,93843.00
2023-03-11T07:46:15.133Z,93845.00
2023-03-11T07:47:14.521Z,93845.00
2023-03-11T07:48:14.937Z,93847.00
2023-03-11T07:49:15.146Z,93847.00
2023-03-11T07:50:14.575Z,93851.00
2023-03-11T07:51:14.608Z,93861.00
2023-03-11T07:52:14.631Z,93853.00
2023-03-11T07:53:14.657Z,93851.00
2023-03-11T07:54:14.683Z,93851.00
2023-03-11T07:55:14.724Z,93851.00
2023-03-11T07:56:14.705Z,93851.00
2023-03-11T07:57:14.758Z,93861.00
2023-03-11T07:58:14.765Z,93863.00
2023-03-11T07:59:14.780Z,93865.00
2023-03-11T08:00:14.829Z,93867.00
2023-03-11T08:01:14.832Z,93868.00
2023-03-11T08:02:14.829Z,93870.00
2023-03-11T08:03:14.880Z,93874.00
2023-03-11T08:04:14.909Z,93876.00
2023-03-11T08:05:14.924Z,93876.00
2023-03-11T08:06:14.903Z,93876.00
2023-03-11T08:07:14.957Z,93874.00
2023-03-11T08:08:14.967Z,93876.00
2023-03-11T08:09:14.991Z,93876.00
2023-03-11T08:10:14.991Z,93876.00
2023-03-11T08:11:15.010Z,93876.00
2023-03-11T08:12:15.547Z,93882.00
2023-03-11T08:13:15.050Z,93884.00
2023-03-11T08:14:15.079Z,93884.00
2023-03-11T08:15:15.112Z,93888.00
2023-03-11T08:16:15.094Z,93890.00
2023-03-11T08:17:15.135Z,93892.00
2023-03-11T08:18:15.155Z,93890.00
2023-03-11T08:19:15.173Z,93888.00
2023-03-11T08:20:15.178Z,93890.00
2023-03-11T08:21:15.185Z,93888.00
2023-03-11T08:22:15.209Z,93888.00
2023-03-11T08:23:15.214Z,93890.00
2023-03-11T08:24:15.243Z,93892.00
2023-03-11T08:25:15.268Z,93894.00
2023-03-11T08:26:15.278Z,93896.00
2023-03-11T08:27:15.308Z,93898.00
2023-03-11T08:28:15.343Z,93898.00
2023-03-11T08:29:15.348Z,93902.00
2023-03-11T08:30:15.343Z,93898.00
2023-03-11T08:31:15.448Z,93896.00
2023-03-11T08:32:15.411Z,93898.00
2023-03-11T08:33:15.393Z,93894.00
2023-03-11T08:34:15.415Z,93894.00
2023-03-11T08:35:15.414Z,93892.00
2023-03-11T08:36:15.416Z,93896.00
2023-03-11T08:37:15.489Z,93898.00
2023-03-11T08:38:15.461Z,93898.00
2023-03-11T08:39:15.551Z,93902.00
2023-03-11T08:40:15.492Z,93902.00
2023-03-11T08:41:15.513Z,93904.00
2023-03-11T08:42:15.520Z,93904.00
2023-03-11T08:43:15.513Z,93906.00
2023-03-11T08:44:15.536Z,93904.00
2023-03-11T08:45:15.533Z,93902.00
2023-03-11T08:46:15.575Z,93900.00
2023-03-11T08:47:15.544Z,93898.00
2023-03-11T08:48:15.523Z,93898.00
2023-03-11T08:49:15.593Z,93898.00
2023-03-11T08:50:15.574Z,93898.00
2023-03-11T08:51:15.552Z,93896.00
2023-03-11T08:52:15.552Z,93894.00
2023-03-11T08:53:15.573Z,93900.00
2023-03-11T08:54:15.549Z,93904.00
2023-03-11T08:55:15.568Z,93900.00
2023-03-11T08:56:15.567Z,93898.00
2023-03-11T08:57:15.614Z,93898.00
2023-03-11T08:58:15.604Z,93892.00
2023-03-11T08:59:15.596Z,93890.00
2023-03-11T09:00:15.650Z,93888.00
2023-03-11T09:01:15.642Z,93884.00
2023-03-11T09:02:15.680Z,93892.00
2023-03-11T09:03:15.722Z,93892.00
2023-03-11T09:04:15.746Z,93896.00
2023-03-11T09:05:15.773Z,93898.00
2023-03-11T09:06:15.870Z,93902.00
2023-03-11T09:07:15.885Z,93902.00
2023-03-11T09:08:15.913Z,93900.00
2023-03-11T09:09:15.976Z,93896.00
2023-03-11T09:10:16.038Z,93902.00
2023-03-11T09:11:16.086Z,93904.00
2023-03-11T09:12:16.126Z,93904.00
2023-03-11T09:13:16.156Z,93904.00
2023-03-11T09:14:16.218Z,93902.00
2023-03-11T09:15:16.292Z,93900.00
2023-03-11T09:16:16.446Z,93894.00
2023-03-11T09:17:16.369Z,93894.00
2023-03-11T09:18:16.514Z,93894.00
2023-03-11T09:19:16.442Z,93894.00
2023-03-11T09:20:16.505Z,93888.00
2023-03-11T09:21:16.527Z,93886.00
2023-03-11T09:22:16.568Z,93892.00
2023-03-11T09:23:16.655Z,93892.00
2023-03-11T09:24:16.732Z,93896.00
2023-03-11T09:25:16.774Z,93894.00
2023-03-11T09:26:16.856Z,93900.00
2023-03-11T09:27:16.889Z,93900.00
2023-03-11T09:28:16.974Z,93898.00
2023-03-11T09:29:17.009Z,93896.00
2023-03-11T09:30:17.071Z,93894.00
2023-03-11T09:31:17.228Z,93886.00
2023-03-11T09:32:17.241Z,93884.00
2023-03-11T09:33:17.287Z,93884.00
2023-03-11T09:34:17.313Z,93882.00
2023-03-11T09:35:17.386Z,93884.00
2023-03-11T09:36:17.441Z,93880.00
2023-03-11T09:37:17.505Z,93884.00
2023-03-11T09:38:17.547Z,93888.00
2023-03-11T09:39:17.691Z,93882.00
2023-03-11T09:40:17.665Z,93886.00
2023-03-11T09:41:17.771Z,93894.00
2023-03-11T09:42:17.777Z,93898.00
2023-03-11T09:43:17.821Z,93900.00
2023-03-11T09:44:17.896Z,93902.00
2023-03-11T09:45:17.953Z,93904.00
2023-03-11T09:46:18.063Z,93904.00
2023-03-11T09:47:18.032Z,93906.00
2023-03-11T09:48:18.082Z,93904.00
2023-03-11T09:49:18.174Z,93906.00
2023-03-11T09:50:18.232Z,93902.00
2023-03-11T09:51:18.250Z,93910.00
2023-03-11T09:52:18.323Z,93912.00
2023-03-11T09:53:18.405Z,93910.00
2023-03-11T09:54:18.415Z,93906.00
2023-03-11T09:55:18.477Z,93904.00
2023-03-11T09:56:18.547Z,93902.00
2023-03-11T09:57:18.589Z,93900.00
2023-03-11T09:58:18.647Z,93900.00
2023-03-11T09:59:18.705Z,93898.00
2023-03-11T10:00:18.727Z,93904.00
2023-03-11T10:01:18.813Z,93910.00
2023-03-11T10:02:18.908Z,93910.00
2023-03-11T10:03:18.990Z,93912.00
2023-03-11T10:04:18.968Z,93914.00
2023-03-11T10:05:18.998Z,93918.00
2023-03-11T10:06:19.066Z,93914.00
2023-03-11T10:07:19.114Z,93912.00
2023-03-11T10:08:19.152Z,93910.00
2023-03-11T10:09:19.178Z,93908.00
2023-03-11T10:10:19.234Z,93910.00
2023-03-11T10:11:19.262Z,93916.00
2023-03-11T10:12:19.329Z,93912.00
2023-03-11T10:13:19.357Z,93916.00
2023-03-11T10:14:19.390Z,93910.00
2023-03-11T10:15:20.151Z,93912.00
2023-03-11T10:16:19.468Z,93918.00
2023-03-11T10:17:19.475Z,93918.00
2023-03-11T10:18:19.511Z,93920.00
2023-03-11T10:19:19.523Z,93923.00
2023-03-11T10:20:19.516Z,93923.00
2023-03-11T10:21:19.595Z,93922.00
2023-03-11T10:35:20.147Z,93918.00
2023-03-11T10:36:20.157Z,93920.00
2023-03-11T10:37:20.175Z,93916.00
2023-03-11T11:00:21.388Z,93922.00
2023-03-11T11:01:21.522Z,93918.00
2023-03-11T11:05:21.631Z,93918.00
2023-03-11T11:06:21.660Z,93912.00
2023-03-11T11:07:21.763Z,93920.00
2023-03-11T11:08:21.782Z,93916.00
2023-03-11T11:09:21.819Z,93927.00
2023-03-11T11:10:21.902Z,93922.00
2023-03-11T11:11:21.905Z,93925.00
2023-03-11T11:12:21.980Z,93929.00
2023-03-11T11:13:22.028Z,93923.00
2023-03-11T11:14:22.069Z,93922.00
2023-03-11T11:15:22.096Z,93923.00
2023-03-11T11:16:22.210Z,93920.00
2023-03-11T11:17:22.188Z,93923.00
2023-03-11T11:18:22.221Z,93916.00
2023-03-11T11:19:22.271Z,93918.00
2023-03-11T11:20:22.288Z,93914.00
2023-03-11T11:21:22.327Z,93922.00
2023-03-11T11:22:22.353Z,93918.00
2023-03-11T11:23:22.392Z,93914.00
2023-03-11T11:24:22.419Z,93910.00
2023-03-11T11:25:22.472Z,93908.00
2023-03-11T11:26:22.487Z,93906.00
2023-03-11T11:27:22.531Z,93908.00
2023-03-11T11:28:22.535Z,93906.00
2023-03-11T11:29:22.598Z,93910.00
2023-03-11T11:30:22.605Z,93912.00
2023-03-11T11:31:22.622Z,93908.00
2023-03-11T11:32:22.689Z,93908.00
2023-03-11T11:37:22.846Z,93908.00
2023-03-11T11:38:22.848Z,93908.00
2023-03-11T11:39:22.907Z,93904.00
2023-03-11T11:40:22.920Z,93906.00
2023-03-11T11:41:22.960Z,93908.00
2023-03-11T11:42:22.989Z,93906.00
2023-03-11T11:43:23.019Z,93910.00
2023-03-11T11:44:23.068Z,93910.00
2023-03-11T11:45:23.107Z,93918.00
2023-03-11T11:46:23.113Z,93914.00
2023-03-11T11:47:23.175Z,93912.00
2023-03-11T11:48:23.173Z,93908.00
2023-03-11T11:49:23.204Z,93914.00
2023-03-11T11:50:23.230Z,93910.00
2023-03-11T11:51:23.266Z,93906.00
2023-03-11T11:52:23.325Z,93908.00
2023-03-11T11:53:23.339Z,93902.00
2023-03-11T11:54:23.389Z,93908.00
2023-03-11T11:55:23.417Z,93902.00
2023-03-11T11:56:23.420Z,93896.00
2023-03-11T11:57:23.507Z,93900.00
2023-03-11T11:58:23.514Z,93894.00
2023-03-11T11:59:23.553Z,93894.00
2023-03-11T12:00:23.564Z,93900.00
2023-03-11T12:01:23.640Z,93894.00
2023-03-11T12:02:23.636Z,93890.00
2023-03-11T12:03:23.690Z,93886.00
2023-03-11T12:04:23.696Z,93888.00
2023-03-11T12:05:23.784Z,93884.00
2023-03-11T12:06:23.816Z,93884.00
2023-03-11T12:07:23.816Z,93880.00
2023-03-11T12:08:23.894Z,93882.00
2023-03-11T12:09:23.890Z,93880.00
2023-03-11T12:10:24.346Z,93880.00
2023-03-11T12:11:24.008Z,93880.00
2023-03-11T12:12:24.051Z,93876.00
2023-03-11T12:13:24.085Z,93874.00
2023-03-11T12:14:24.127Z,93872.00
2023-03-11T12:15:24.186Z,93872.00
2023-03-11T12:16:24.284Z,93868.00
2023-03-11T12:17:24.288Z,93865.00
2023-03-11T12:18:24.282Z,93863.00
2023-03-11T12:19:24.328Z,93863.00
2023-03-11T12:20:24.354Z,93861.00
2023-03-11T12:21:24.397Z,93849.00
2023-03-11T12:22:24.439Z,93843.00
2023-03-11T12:23:24.517Z,93847.00
2023-03-11T12:24:24.545Z,93843.00
2023-03-11T12:25:24.569Z,93843.00
2023-03-11T12:26:24.673Z,93845.00
2023-03-11T12:27:24.705Z,93845.00
2023-03-11T12:28:25.202Z,93845.00
2023-03-11T12:29:24.822Z,93847.00
2023-03-11T12:30:24.858Z,93843.00
2023-03-11T12:31:24.991Z,93841.00
2023-03-11T12:32:25.066Z,93841.00
2023-03-11T12:33:25.016Z,93839.00
2023-03-11T12:34:25.092Z,93835.00
2023-03-11T12:35:25.139Z,93831.00
2023-03-11T12:36:25.192Z,93829.00
2023-03-11T12:37:25.323Z,93831.00
2023-03-11T12:38:25.308Z,93827.00
2023-03-11T12:39:25.384Z,93829.00
2023-03-11T12:40:25.399Z,93833.00
2023-03-11T12:41:25.458Z,93829.00
2023-03-11T12:42:25.591Z,93831.00
2023-03-11T12:43:25.585Z,93824.00
2023-03-11T12:44:25.600Z,93824.00
2023-03-11T12:45:25.693Z,93820.00
2023-03-11T12:46:25.731Z,93829.00
2023-03-11T12:47:25.786Z,93824.00
2023-03-11T12:48:25.868Z,93826.00
2023-03-11T12:49:25.918Z,93824.00
2023-03-11T12:50:25.985Z,93824.00
2023-03-11T12:51:26.050Z,93818.00
2023-03-11T12:52:26.067Z,93818.00
2023-03-11T12:53:26.154Z,93814.00
2023-03-11T12:54:26.240Z,93814.00
2023-03-11T12:55:26.258Z,93812.00
2023-03-11T12:56:26.324Z,93812.00
2023-03-11T12:57:26.386Z,93808.00
2023-03-11T12:58:26.530Z,93818.00
2023-03-11T12:59:26.549Z,93814.00
2023-03-11T13:00:26.616Z,93814.00
2023-03-11T13:01:26.749Z,93814.00
2023-03-11T13:02:26.699Z,93808.00
2023-03-11T13:03:26.754Z,93814.00
2023-03-11T13:04:26.784Z,93808.00
2023-03-11T13:05:26.781Z,93810.00
2023-03-11T13:06:26.866Z,93810.00
2023-03-11T13:07:26.907Z,93806.00
2023-03-11T13:08:26.925Z,93798.00
2023-03-11T13:09:27.015Z,93798.00
2023-03-11T13:10:27.023Z,93796.00
2023-03-11T13:11:27.069Z,93800.00
2023-03-11T13:12:27.109Z,93802.00
2023-03-11T13:13:27.098Z,93804.00
2023-03-11T13:14:27.155Z,93804.00
2023-03-11T13:15:27.152Z,93794.00
2023-03-11T13:16:27.301Z,93794.00
2023-03-11T13:17:27.291Z,93796.00
2023-03-11T13:18:27.251Z,93798.00
2023-03-11T13:19:27.248Z,93800.00
2023-03-11T13:20:27.216Z,93806.00
2023-03-11T13:21:27.225Z,93808.00
2023-03-11T13:22:27.239Z,93806.00
2023-03-11T13:23:27.263Z,93804.00
2023-03-11T13:24:27.253Z,93804.00
2023-03-11T13:25:27.239Z,93806.00
2023-03-11T13:26:27.259Z,93812.00
2023-03-11T13:27:27.230Z,93814.00
2023-03-11T13:28:27.262Z,93816.00
2023-03-11T13:29:27.261Z,93816.00
2023-03-11T13:30:27.301Z,93816.00
2023-03-11T13:31:27.294Z,93812.00
2023-03-11T13:32:27.442Z,93816.00
2023-03-11T13:33:27.245Z,93820.00
2023-03-11T13:34:27.257Z,93816.00
2023-03-11T13:35:27.306Z,93818.00
2023-03-11T13:36:27.365Z,93822.00
2023-03-11T13:37:27.387Z,93818.00
2023-03-11T13:38:27.380Z,93820.00
2023-03-11T13:39:27.396Z,93820.00
2023-03-11T13:40:27.394Z,93816.00
2023-03-11T13:41:27.410Z,93814.00
2023-03-11T13:42:27.446Z,93816.00
2023-03-11T13:43:27.556Z,93820.00
2023-03-11T13:44:27.553Z,93822.00
2023-03-11T13:45:27.609Z,93822.00
2023-03-11T13:46:27.547Z,93824.00
2023-03-11T13:47:27.580Z,93820.00
2023-03-11T13:48:27.554Z,93824.00
2023-03-11T13:49:27.604Z,93829.00